createdAt,value
2023-04-01T00:00:46.795Z,99128.31
2023-04-01T00:03:49.359Z,99134.88
2023-04-01T00:06:50.975Z,99134.19
2023-04-01T00:09:52.549Z,99131.66
2023-04-01T00:12:54.412Z,99127.31
2023-04-01T00:15:57.325Z,99120.31
2023-04-01T00:18:59.153Z,99127.44
2023-04-01T00:22:00.729Z,99125.03
2023-04-01T00:25:02.491Z,99130.34
2023-04-01T00:28:04.121Z,99130.34
2023-04-01T00:31:10.098Z,99125.03
2023-04-01T00:34:11.672Z,99118.94
2023-04-01T00:37:13.251Z,99132.19
2023-04-01T00:40:34.630Z,99128.56
2023-04-01T00:43:36.409Z,99131.19
2023-04-01T00:46:38.596Z,99135.66
2023-04-01T00:49:46.510Z,99126.75
2023-04-01T00:52:48.205Z,99131.34
2023-04-01T00:56:01.155Z,99126.75
2023-04-01T00:59:09.283Z,99123.94
2023-04-01T01:02:14.458Z,99129.13
2023-04-01T01:05:17.113Z,99135.16
2023-04-01T01:08:38.565Z,99134.19
2023-04-01T01:11:49.180Z,99127.03
2023-04-01T01:15:12.909Z,99130.53
2023-04-01T01:18:17.455Z,99135.16
2023-04-01T01:21:52.849Z,99131.66
2023-04-01T01:25:11.942Z,99126.47
2023-04-01T01:28:51.305Z,99124.78
2023-04-01T01:32:17.209Z,99130.34
2023-04-01T01:35:38.378Z,99126.75
2023-04-01T01:38:40.499Z,99128.69
2023-04-01T01:41:44.984Z,99133.00
2023-04-01T01:44:48.383Z,99139.31
2023-04-01T01:47:52.400Z,99131.34
2023-04-01T01:50:54.512Z,99135.66
2023-04-01T01:53:56.132Z,99138.31
2023-04-01T01:57:07.332Z,99134.00
2023-04-01T02:00:15.659Z,99133.16
2023-04-01T02:03:19.654Z,99134.84
2023-04-01T02:06:24.630Z,99141.72
2023-04-01T02:09:26.253Z,99137.50
2023-04-01T02:12:29.886Z,99142.66
2023-04-01T02:15:38.432Z,99138.31
2023-04-01T02:18:41.387Z,99147.13
2023-04-01T02:21:44.195Z,99138.31
2023-04-01T02:24:47.300Z,99147.13
2023-04-01T02:27:49.033Z,99142.66
2023-04-01T02:30:51.475Z,99147.97
2023-04-01T02:33:53.503Z,99152.31
2023-04-01T02:36:56.807Z,99146.03
2023-04-01T02:40:02.956Z,99155.81
2023-04-01T02:43:04.512Z,99154.97
2023-04-01T02:46:06.124Z,99155.09
2023-04-01T02:49:07.868Z,99157.63
2023-04-01T02:52:09.434Z,99154.97
2023-04-01T02:55:11.161Z,99163.75
2023-04-01T02:58:13.039Z,99155.81
2023-04-01T03:01:14.959Z,99161.09
2023-04-01T03:04:16.581Z,99161.09
2023-04-01T03:07:18.191Z,99168.25
2023-04-01T03:10:19.845Z,99171.03
2023-04-01T03:13:21.561Z,99174.38
2023-04-01T03:16:23.648Z,99174.38
2023-04-01T03:19:25.338Z,99177.19
2023-04-01T03:22:26.903Z,99179.13
2023-04-01T03:25:29.705Z,99181.78
2023-04-01T03:28:31.258Z,99171.16
2023-04-01T03:31:32.897Z,99179.00
2023-04-01T03:34:34.463Z,99185.16
2023-04-01T03:37:36.044Z,99181.66
2023-04-01T03:40:39.275Z,99186.09
2023-04-01T03:43:40.899Z,99189.59
2023-04-01T03:46:42.688Z,99186.09
2023-04-01T03:49:44.367Z,99189.50
2023-04-01T03:52:46.010Z,99193.81
2023-04-01T03:55:47.871Z,99199.00
2023-04-01T03:58:49.403Z,99199.81
2023-04-01T04:01:51.121Z,99200.69
2023-04-01T04:04:52.750Z,99199.00
2023-04-01T04:07:54.601Z,99200.81
2023-04-01T04:10:57.219Z,99193.81
2023-04-01T04:13:58.744Z,99208.91
2023-04-01T04:17:00.254Z,99210.59
2023-04-01T04:20:02.081Z,99214.19
2023-04-01T04:23:03.695Z,99210.00
2023-04-01T04:26:07.902Z,99212.66
2023-04-01T04:29:09.445Z,99215.44
2023-04-01T04:32:11.221Z,99218.25
2023-04-01T04:35:12.793Z,99225.22
2023-04-01T04:38:14.859Z,99234.03
2023-04-01T04:41:18.949Z,99233.06
2023-04-01T04:44:20.831Z,99235.72
2023-04-01T04:47:22.473Z,99241.03
2023-04-01T04:50:24.952Z,99239.47
2023-04-01T04:53:27.204Z,99239.75
2023-04-01T04:56:28.769Z,99250.34
2023-04-01T04:59:31.346Z,99252.16
2023-04-01T05:02:33.001Z,99256.63
2023-04-01T05:05:34.973Z,99252.16
2023-04-01T05:08:38.437Z,99258.31
2023-04-01T05:11:39.990Z,99259.97
2023-04-01T05:14:41.714Z,99252.16
2023-04-01T05:17:43.366Z,99259.16
2023-04-01T05:20:52.775Z,99269.78
2023-04-01T05:23:54.340Z,99267.25
2023-04-01T05:26:57.053Z,99265.59
2023-04-01T05:29:59.109Z,99265.59
2023-04-01T05:33:00.721Z,99272.69
2023-04-01T05:36:14.423Z,99279.66
2023-04-01T05:39:16.400Z,99279.81
2023-04-01T05:42:18.206Z,99282.47
2023-04-01T05:45:20.152Z,99284.28
2023-04-01T05:48:21.738Z,99285.13
2023-04-01T05:51:23.276Z,99289.47
2023-04-01T05:54:24.863Z,99287.78
2023-04-01T05:57:26.431Z,99291.28
2023-04-01T06:00:28.151Z,99304.56
2023-04-01T06:03:29.777Z,99304.56
2023-04-01T06:06:32.968Z,99304.66
2023-04-01T06:09:34.928Z,99313.47
2023-04-01T06:12:52.815Z,99313.47
2023-04-01T06:16:12.600Z,99320.59
2023-04-01T06:19:37.215Z,99319.78
2023-04-01T06:23:01.769Z,99327.84
2023-04-01T06:26:18.181Z,99329.69
2023-04-01T06:29:45.708Z,99337.63
2023-04-01T06:32:58.536Z,99337.63
2023-04-01T06:36:29.568Z,99342.94
2023-04-01T06:39:41.654Z,99340.16
2023-04-01T06:42:51.378Z,99345.59
2023-04-01T06:46:13.113Z,99346.41
2023-04-01T06:49:37.394Z,99356.78
2023-04-01T06:52:46.957Z,99355.09
2023-04-01T06:55:53.748Z,99357.63
2023-04-01T06:59:02.926Z,99363.66
2023-04-01T07:02:10.710Z,99375.13
2023-04-01T07:05:14.990Z,99366.16
2023-04-01T07:08:25.013Z,99368.81
2023-04-01T07:11:32.353Z,99367.88
2023-04-01T07:14:38.412Z,99381.00
2023-04-01T07:17:42.398Z,99377.53
2023-04-01T07:20:44.269Z,99384.50
2023-04-01T07:23:48.086Z,99390.53
2023-04-01T07:26:55.835Z,99391.38
2023-04-01T07:29:58.705Z,99396.56
2023-04-01T07:33:06.808Z,99396.44
2023-04-01T07:36:19.144Z,99402.59
2023-04-01T07:39:37.765Z,99411.28
2023-04-01T07:42:51.396Z,99410.31
2023-04-01T07:46:13.984Z,99415.63
2023-04-01T07:49:22.676Z,99419.09
2023-04-01T07:52:57.361Z,99425.25
2023-04-01T07:56:02.029Z,99427.91
2023-04-01T07:59:27.665Z,99432.25
2023-04-01T08:02:53.592Z,99440.22
2023-04-01T08:06:01.193Z,99441.09
2023-04-01T08:09:25.894Z,99451.56
2023-04-01T08:12:39.680Z,99458.56
2023-04-01T08:15:54.516Z,99453.53
2023-04-01T08:19:17.548Z,99461.13
2023-04-01T08:22:30.352Z,99467.66
2023-04-01T08:25:35.399Z,99470.56
2023-04-01T08:29:00.601Z,99477.81
2023-04-01T08:32:14.268Z,99489.69
2023-04-01T08:35:28.870Z,99493.91
2023-04-01T08:38:39.006Z,99486.09
2023-04-01T08:41:52.715Z,99495.78
2023-04-01T08:45:01.529Z,99513.44
2023-04-01T08:48:40.759Z,99526.47
2023-04-01T08:51:49.452Z,99523.81
2023-04-01T08:54:53.836Z,99523.47
2023-04-01T08:58:15.881Z,99532.97
2023-04-01T09:01:47.681Z,99537.56
2023-04-01T09:05:04.731Z,99540.19
2023-04-01T09:08:15.313Z,99548.72
2023-04-01T09:11:53.984Z,99543.31
2023-04-01T09:15:06.586Z,99554.34
2023-04-01T09:18:25.549Z,99559.66
2023-04-01T09:21:38.056Z,99567.06
2023-04-01T09:24:42.391Z,99566.72
2023-04-01T09:28:16.098Z,99569.00
2023-04-01T09:31:21.134Z,99583.31
2023-04-01T09:34:38.574Z,99579.31
2023-04-01T09:38:03.102Z,99590.25
2023-04-01T09:41:07.418Z,99599.28
2023-04-01T09:44:36.633Z,99609.16
2023-04-01T09:47:51.114Z,99609.38
2023-04-01T09:51:11.703Z,99612.34
2023-04-01T09:54:18.566Z,99623.81
2023-04-01T09:57:48.506Z,99625.59
2023-04-01T10:00:49.989Z,99636.63
2023-04-01T10:04:10.530Z,99637.91
2023-04-01T10:07:21.103Z,99642.47
2023-04-01T10:10:39.675Z,99659.44
2023-04-01T10:14:15.375Z,99658.94
2023-04-01T10:17:55.799Z,99671.66
2023-04-01T10:21:16.029Z,99668.72
2023-04-01T10:24:36.211Z,99673.59
2023-04-01T10:28:00.918Z,99676.34
2023-04-01T10:31:05.654Z,99691.59
2023-04-01T10:34:28.783Z,99680.28
2023-04-01T10:38:07.763Z,99689.91
2023-04-01T10:41:14.933Z,99697.00
2023-04-01T10:44:32.950Z,99698.94
2023-04-01T10:48:12.133Z,99723.81
2023-04-01T10:51:32.070Z,99712.91
2023-04-01T10:54:40.814Z,99709.84
2023-04-01T10:58:00.437Z,99720.63
2023-04-01T11:01:23.069Z,99720.09
2023-04-01T11:04:43.478Z,99731.94
2023-04-01T11:08:06.518Z,99740.28
2023-04-01T11:11:36.819Z,99740.41
2023-04-01T11:15:11.915Z,99745.69
2023-04-01T11:18:38.273Z,99750.97
2023-04-01T11:21:56.250Z,99757.84
2023-04-01T11:25:06.978Z,99764.94
2023-04-01T11:28:08.491Z,99767.50
2023-04-01T11:31:31.453Z,99777.97
2023-04-01T11:35:04.204Z,99772.03
2023-04-01T11:38:31.935Z,99792.38
2023-04-01T11:42:03.226Z,99793.41
2023-04-01T11:45:34.232Z,99788.31
2023-04-01T11:48:36.110Z,99800.81
2023-04-01T11:51:48.718Z,99821.13
2023-04-01T11:55:19.543Z,99806.97
2023-04-01T11:58:21.167Z,99813.06
2023-04-01T12:01:38.663Z,99827.81
2023-04-01T12:05:03.345Z,99824.31
2023-04-01T12:08:28.267Z,99834.03
2023-04-01T12:11:52.570Z,99838.38
2023-04-01T12:15:15.453Z,99849.78
2023-04-01T12:18:31.314Z,99853.28
2023-04-01T12:21:51.639Z,99863.13
2023-04-01T12:25:02.422Z,99872.00
2023-04-01T12:28:15.088Z,99871.25
2023-04-01T12:32:03.280Z,99888.19
2023-04-01T12:35:07.755Z,99881.22
2023-04-01T12:38:21.780Z,99887.34
2023-04-01T12:41:38.706Z,99902.38
2023-04-01T12:45:18.254Z,99892.84
2023-04-01T12:48:43.716Z,99904.34
2023-04-01T12:52:03.397Z,99907.19
2023-04-01T12:55:29.232Z,99911.66
2023-04-01T12:59:08.038Z,99921.38
2023-04-01T13:02:40.061Z,99920.53
2023-04-01T13:05:44.594Z,99928.66
2023-04-01T13:09:04.625Z,99938.38
2023-04-01T13:12:42.864Z,99939.41
2023-04-01T13:15:53.936Z,99949.34
2023-04-01T13:19:10.840Z,99962.75
2023-04-01T13:22:18.654Z,99956.59
2023-04-01T13:25:28.882Z,99963.59
2023-04-01T13:28:48.546Z,99967.84
2023-04-01T13:32:02.021Z,99969.75
2023-04-01T13:35:31.534Z,99969.75
2023-04-01T13:39:02.006Z,99977.75
2023-04-01T13:42:09.778Z,99987.47
2023-04-01T13:45:37.755Z,99988.50
2023-04-01T13:49:16.703Z,99997.69
2023-04-01T13:52:54.779Z,100007.13
2023-04-01T13:56:33.168Z,100022.78
2023-04-01T13:59:52.578Z,100013.44
2023-04-01T14:03:19.149Z,100024.88
2023-04-01T14:06:21.057Z,100018.06
2023-04-01T14:10:11.933Z,100039.41
2023-04-01T14:13:49.300Z,100043.19
2023-04-01T14:17:01.634Z,100056.47
2023-04-01T14:20:18.378Z,100052.22
2023-04-01T14:23:36.783Z,100061.94
2023-04-01T14:27:04.605Z,100084.13
2023-04-01T14:30:45.218Z,100074.66
2023-04-01T14:34:02.574Z,100080.31
2023-04-01T14:37:13.757Z,100086.69
2023-04-01T14:40:40.636Z,100096.50
2023-04-01T14:43:42.143Z,100096.69
2023-04-01T14:46:52.744Z,100106.59
2023-04-01T14:50:05.091Z,100120.06
2023-04-01T14:53:26.125Z,100124.06
2023-04-01T14:57:11.950Z,100131.41
2023-04-01T15:00:16.087Z,100129.78
2023-04-01T15:03:27.122Z,100140.34
2023-04-01T15:06:44.829Z,100134.31
2023-04-01T15:10:36.866Z,100140.63
2023-04-01T15:13:59.867Z,100152.94
2023-04-01T15:17:29.995Z,100158.34
2023-04-01T15:21:13.331Z,100168.13
2023-04-01T15:24:25.425Z,100165.66
2023-04-01T15:27:49.080Z,100182.41
2023-04-01T15:31:12.412Z,100180.72
2023-04-01T15:34:19.839Z,100183.44
2023-04-01T15:37:44.360Z,100195.88
2023-04-01T15:41:04.962Z,100203.03
2023-04-01T15:44:39.612Z,100207.44
2023-04-01T15:47:46.749Z,100219.78
2023-04-01T15:51:25.372Z,100219.03
2023-04-01T15:54:47.952Z,100231.47
2023-04-01T15:58:07.819Z,100231.78
2023-04-01T16:01:12.320Z,100246.84
2023-04-01T16:04:51.609Z,100251.28
2023-04-01T16:08:02.394Z,100255.88
2023-04-01T16:11:13.031Z,100263.78
2023-04-01T16:14:33.136Z,100273.41
2023-04-01T16:18:03.646Z,100279.63
2023-04-01T16:21:15.771Z,100276.13
2023-04-01T16:24:23.393Z,100292.97
2023-04-01T16:27:30.993Z,100298.25
2023-04-01T16:30:45.289Z,100298.34
2023-04-01T16:33:56.188Z,100301.13
2023-04-01T16:37:15.617Z,100312.69
2023-04-01T16:40:43.686Z,100307.47
2023-04-01T16:43:56.748Z,100323.25
2023-04-01T16:47:07.186Z,100335.59
2023-04-01T16:50:42.914Z,100341.00
2023-04-01T16:53:48.636Z,100344.66
2023-04-01T16:56:57.471Z,100350.09
2023-04-01T17:00:50.859Z,100365.25
2023-04-01T17:04:01.520Z,100373.38
2023-04-01T17:07:33.735Z,100371.75
2023-04-01T17:10:59.190Z,100377.56
2023-04-01T17:14:08.722Z,100397.03
2023-04-01T17:17:16.414Z,100390.03
2023-04-01T17:20:41.719Z,100405.09
2023-04-01T17:23:53.539Z,100410.47
2023-04-01T17:27:27.314Z,100425.50
2023-04-01T17:30:30.180Z,100431.03
2023-04-01T17:33:37.802Z,100438.13
2023-04-01T17:36:59.036Z,100436.44
2023-04-01T17:40:34.772Z,100447.84
2023-04-01T17:44:17.160Z,100452.72
2023-04-01T17:47:24.960Z,100471.41
2023-04-01T17:51:00.593Z,100473.38
2023-04-01T17:54:38.286Z,100485.97
2023-04-01T17:57:58.213Z,100493.28
2023-04-01T18:01:18.537Z,100497.94
2023-04-01T18:04:31.025Z,100509.56
2023-04-01T18:07:47.872Z,100519.38
2023-04-01T18:10:59.599Z,100523.13
2023-04-01T18:14:24.503Z,100531.22
2023-04-01T18:17:50.940Z,100541.81
2023-04-01T18:21:05.969Z,100559.41
2023-04-01T18:24:23.252Z,100560.38
2023-04-01T18:27:43.816Z,100571.94
2023-04-01T18:30:54.026Z,100578.91
2023-04-01T18:34:37.337Z,100585.97
2023-04-01T18:37:45.493Z,100598.38
2023-04-01T18:41:14.943Z,100599.44
2023-04-01T18:44:19.511Z,100593.34
2023-04-01T18:47:44.599Z,100613.72
2023-04-01T18:51:15.942Z,100625.25
2023-04-01T18:54:44.332Z,100634.06
2023-04-01T18:58:07.693Z,100642.09
2023-04-01T19:01:34.630Z,100650.22
2023-04-01T19:05:24.456Z,100655.63
2023-04-01T19:08:28.092Z,100662.72
2023-04-01T19:12:08.648Z,100671.56
2023-04-01T19:15:39.186Z,100680.47
2023-04-01T19:18:43.446Z,100684.97
2023-04-01T19:21:54.043Z,100699.00
2023-04-01T19:25:13.887Z,100697.28
2023-04-01T19:28:44.480Z,100704.41
2023-04-01T19:32:10.414Z,100714.94
2023-04-01T19:35:36.895Z,100729.06
2023-04-01T19:38:41.259Z,100719.53
2023-04-01T19:42:16.937Z,100727.53
2023-04-01T19:45:33.515Z,100737.25
2023-04-01T19:48:44.694Z,100747.97
2023-04-01T19:52:05.210Z,100746.34
2023-04-01T19:55:26.052Z,100762.97
2023-04-01T19:58:36.409Z,100767.25
2023-04-01T20:01:59.485Z,100772.47
2023-04-01T20:05:17.043Z,100782.19
2023-04-01T20:08:27.826Z,100779.75
2023-04-01T20:11:44.687Z,100798.25
2023-04-01T20:14:56.186Z,100799.31
2023-04-01T20:18:02.045Z,100806.38
2023-04-01T20:21:17.666Z,100815.25
2023-04-01T20:24:24.741Z,100824.94
2023-04-01T20:27:36.659Z,100839.94
2023-04-01T20:30:38.261Z,100838.41
2023-04-01T20:33:58.868Z,100843.78
2023-04-01T20:37:17.586Z,100849.03
2023-04-01T20:40:28.393Z,100858.72
2023-04-01T20:43:56.249Z,100868.44
2023-04-01T20:47:46.447Z,100875.59
2023-04-01T20:50:54.627Z,100881.03
2023-04-01T20:54:23.135Z,100882.88
2023-04-01T20:57:43.317Z,100892.69
2023-04-01T21:01:27.404Z,100891.19
2023-04-01T21:04:51.962Z,100902.91
2023-04-01T21:08:02.835Z,100915.34
2023-04-01T21:11:36.859Z,100914.66
2023-04-01T21:14:44.102Z,100933.22
2023-04-01T21:18:23.440Z,100936.09
2023-04-01T21:21:43.353Z,100936.28
2023-04-01T21:25:03.133Z,100942.56
2023-04-01T21:28:51.037Z,100948.88
2023-04-01T21:32:07.466Z,100959.56
2023-04-01T21:35:44.392Z,100961.47
2023-04-01T21:38:58.054Z,100978.31
2023-04-01T21:42:08.283Z,100986.28
2023-04-01T21:45:15.849Z,100984.69
2023-04-01T21:48:46.376Z,100992.78
2023-04-01T21:52:29.990Z,101008.72
2023-04-01T21:55:49.775Z,101015.00
2023-04-01T21:59:13.326Z,101015.16
2023-04-01T22:02:29.635Z,101024.06
2023-04-01T22:05:46.333Z,101028.53
2023-04-01T22:09:01.532Z,101040.13
2023-04-01T22:12:19.232Z,101039.41
2023-04-01T22:16:07.110Z,101048.22
2023-04-01T22:19:35.866Z,101057.91
2023-04-01T22:22:59.362Z,101070.31
2023-04-01T22:26:11.584Z,101079.19
2023-04-01T22:29:38.047Z,101080.22
2023-04-01T22:32:48.085Z,101086.50
2023-04-01T22:36:13.654Z,101083.13
2023-04-01T22:39:18.041Z,101092.00
2023-04-01T22:42:47.604Z,101099.06
2023-04-01T22:46:27.808Z,101109.63
2023-04-01T22:49:58.962Z,101115.78
2023-04-01T22:53:16.238Z,101122.91
2023-04-01T22:56:26.472Z,101139.59
2023-04-01T22:59:36.048Z,101139.66
2023-04-01T23:02:41.181Z,101146.78
2023-04-01T23:05:58.216Z,101157.34
2023-04-01T23:09:11.711Z,101155.72
2023-04-01T23:12:17.018Z,101163.72
2023-04-01T23:15:20.025Z,101173.47
2023-04-01T23:18:59.958Z,101180.59
2023-04-01T23:22:13.819Z,101187.69
2023-04-01T23:25:21.478Z,101194.75
2023-04-01T23:28:35.024Z,101201.88
2023-04-01T23:31:39.754Z,101200.22
2023-04-01T23:34:48.812Z,101217.81
2023-04-01T23:37:50.654Z,101217.00
2023-04-01T23:40:55.310Z,101217.06
2023-04-01T23:44:01.538Z,101225.81
2023-04-01T23:47:05.655Z,101234.59
2023-04-01T23:50:24.783Z,101246.91
2023-04-01T23:53:30.809Z,101247.03
2023-04-01T23:56:56.529Z,101239.28
